sensor_id;sensor_type;location;lat;lon;timestamp;P1;durP1;ratioP1;P2;durP2;ratioP2
2618;SDS011;1319;52.346;13.096;2023-07-20T00:00:46;8.90;;;6.63;;
2618;SDS011;1319;52.346;13.096;2023-07-20T00:03:12;6.93;;;6.20;;
2618;SDS011;1319;52.346;13.096;2023-07-20T00:05:44;10.93;;;6.97;;
2618;SDS011;1319;52.346;13.096;2023-07-20T00:08:09;7.50;;;6.70;;
2618;SDS011;1319;52.346;13.096;2023-07-20T00:10:34;8.23;;;6.83;;
2618;SDS011;1319;52.346;13.096;2023-07-20T00:13:00;13.20;;;7.20;;
2618;SDS011;1319;52.346;13.096;2023-07-20T00:15:25;12.17;;;7.33;;
2618;SDS011;1319;52.346;13.096;2023-07-20T00:17:50;8.20;;;7.07;;
2618;SDS011;1319;52.346;13.096;2023-07-20T00:20:15;9.00;;;7.33;;
2618;SDS011;1319;52.346;13.096;2023-07-20T00:22:40;10.80;;;7.20;;
2618;SDS011;1319;52.346;13.096;2023-07-20T00:25:06;8.20;;;7.17;;
2618;SDS011;1319;52.346;13.096;2023-07-20T00:27:31;9.93;;;7.20;;
2618;SDS011;1319;52.346;13.096;2023-07-20T00:29:56;9.33;;;8.00;;
2618;SDS011;1319;52.346;13.096;2023-07-20T00:32:21;10.23;;;8.17;;
2618;SDS011;1319;52.346;13.096;2023-07-20T00:34:47;8.83;;;7.43;;
2618;SDS011;1319;52.346;13.096;2023-07-20T00:37:12;9.40;;;7.87;;
2618;SDS011;1319;52.346;13.096;2023-07-20T00:39:38;9.20;;;8.27;;
2618;SDS011;1319;52.346;13.096;2023-07-20T00:42:03;9.33;;;7.83;;
2618;SDS011;1319;52.346;13.096;2023-07-20T00:44:29;8.70;;;7.80;;
2618;SDS011;1319;52.346;13.096;2023-07-20T00:46:54;8.90;;;8.00;;
2618;SDS011;1319;52.346;13.096;2023-07-20T00:49:20;8.90;;;7.70;;
2618;SDS011;1319;52.346;13.096;2023-07-20T00:51:47;8.83;;;7.53;;
2618;SDS011;1319;52.346;13.096;2023-07-20T00:54:12;10.73;;;7.57;;
2618;SDS011;1319;52.346;13.096;2023-07-20T00:56:38;8.40;;;7.63;;
2618;SDS011;1319;52.346;13.096;2023-07-20T00:59:04;12.13;;;8.23;;
2618;SDS011;1319;52.346;13.096;2023-07-20T01:01:29;9.03;;;8.23;;
2618;SDS011;1319;52.346;13.096;2023-07-20T01:03:54;9.40;;;8.23;;
2618;SDS011;1319;52.346;13.096;2023-07-20T01:06:29;8.90;;;8.10;;
2618;SDS011;1319;52.346;13.096;2023-07-20T01:09:08;9.00;;;7.60;;
2618;SDS011;1319;52.346;13.096;2023-07-20T01:14:11;13.63;;;8.00;;
2618;SDS011;1319;52.346;13.096;2023-07-20T01:16:37;8.23;;;7.40;;
2618;SDS011;1319;52.346;13.096;2023-07-20T01:19:02;10.40;;;7.97;;
2618;SDS011;1319;52.346;13.096;2023-07-20T01:21:52;8.73;;;7.87;;
2618;SDS011;1319;52.346;13.096;2023-07-20T01:24:23;8.80;;;7.50;;
2618;SDS011;1319;52.346;13.096;2023-07-20T01:29:43;8.40;;;7.50;;
2618;SDS011;1319;52.346;13.096;2023-07-20T01:32:14;7.73;;;7.03;;
2618;SDS011;1319;52.346;13.096;2023-07-20T01:34:41;8.37;;;7.57;;
2618;SDS011;1319;52.346;13.096;2023-07-20T01:37:07;10.10;;;7.63;;
2618;SDS011;1319;52.346;13.096;2023-07-20T01:39:33;11.00;;;7.73;;
2618;SDS011;1319;52.346;13.096;2023-07-20T01:41:58;8.27;;;7.47;;
2618;SDS011;1319;52.346;13.096;2023-07-20T01:44:23;9.00;;;8.10;;
2618;SDS011;1319;52.346;13.096;2023-07-20T01:46:49;9.13;;;7.53;;
2618;SDS011;1319;52.346;13.096;2023-07-20T01:49:14;8.27;;;7.50;;
2618;SDS011;1319;52.346;13.096;2023-07-20T01:51:39;10.33;;;8.60;;
2618;SDS011;1319;52.346;13.096;2023-07-20T01:54:05;12.23;;;7.80;;
2618;SDS011;1319;52.346;13.096;2023-07-20T01:56:30;11.73;;;8.30;;
2618;SDS011;1319;52.346;13.096;2023-07-20T01:58:56;10.10;;;7.60;;
2618;SDS011;1319;52.346;13.096;2023-07-20T02:01:21;11.87;;;8.47;;
2618;SDS011;1319;52.346;13.096;2023-07-20T02:03:46;9.63;;;8.23;;
2618;SDS011;1319;52.346;13.096;2023-07-20T02:06:11;9.97;;;8.17;;
2618;SDS011;1319;52.346;13.096;2023-07-20T02:08:36;11.57;;;7.87;;
2618;SDS011;1319;52.346;13.096;2023-07-20T02:11:02;9.73;;;8.73;;
2618;SDS011;1319;52.346;13.096;2023-07-20T02:13:27;11.07;;;8.40;;
2618;SDS011;1319;52.346;13.096;2023-07-20T02:15:52;12.30;;;8.90;;
2618;SDS011;1319;52.346;13.096;2023-07-20T02:18:18;9.80;;;8.27;;
2618;SDS011;1319;52.346;13.096;2023-07-20T02:20:43;12.00;;;8.90;;
2618;SDS011;1319;52.346;13.096;2023-07-20T02:23:09;13.63;;;8.97;;
2618;SDS011;1319;52.346;13.096;2023-07-20T02:25:35;9.23;;;8.23;;
2618;SDS011;1319;52.346;13.096;2023-07-20T02:28:00;11.67;;;9.87;;
2618;SDS011;1319;52.346;13.096;2023-07-20T02:30:25;10.07;;;9.07;;
2618;SDS011;1319;52.346;13.096;2023-07-20T02:32:52;11.90;;;9.73;;
2618;SDS011;1319;52.346;13.096;2023-07-20T02:35:17;10.63;;;9.00;;
2618;SDS011;1319;52.346;13.096;2023-07-20T02:37:42;17.20;;;9.60;;
2618;SDS011;1319;52.346;13.096;2023-07-20T02:40:07;15.67;;;10.40;;
2618;SDS011;1319;52.346;13.096;2023-07-20T02:42:33;15.50;;;10.23;;
2618;SDS011;1319;52.346;13.096;2023-07-20T02:44:59;14.07;;;10.63;;
2618;SDS011;1319;52.346;13.096;2023-07-20T02:47:24;13.13;;;10.40;;
2618;SDS011;1319;52.346;13.096;2023-07-20T02:49:50;12.30;;;11.00;;
2618;SDS011;1319;52.346;13.096;2023-07-20T02:52:15;15.33;;;11.27;;
2618;SDS011;1319;52.346;13.096;2023-07-20T02:54:40;14.20;;;11.07;;
2618;SDS011;1319;52.346;13.096;2023-07-20T02:57:06;14.67;;;10.80;;
2618;SDS011;1319;52.346;13.096;2023-07-20T02:59:31;15.80;;;11.23;;
2618;SDS011;1319;52.346;13.096;2023-07-20T03:01:56;13.77;;;11.00;;
2618;SDS011;1319;52.346;13.096;2023-07-20T03:04:22;16.03;;;11.20;;
2618;SDS011;1319;52.346;13.096;2023-07-20T03:06:49;18.17;;;11.57;;
2618;SDS011;1319;52.346;13.096;2023-07-20T03:09:14;15.97;;;12.20;;
2618;SDS011;1319;52.346;13.096;2023-07-20T03:11:40;15.70;;;13.00;;
2618;SDS011;1319;52.346;13.096;2023-07-20T03:14:05;19.20;;;13.23;;
2618;SDS011;1319;52.346;13.096;2023-07-20T03:16:31;20.00;;;13.70;;
2618;SDS011;1319;52.346;13.096;2023-07-20T03:18:58;19.70;;;14.23;;
2618;SDS011;1319;52.346;13.096;2023-07-20T03:21:23;20.83;;;16.00;;
2618;SDS011;1319;52.346;13.096;2023-07-20T03:23:48;21.10;;;15.90;;
2618;SDS011;1319;52.346;13.096;2023-07-20T03:26:13;21.60;;;17.33;;
2618;SDS011;1319;52.346;13.096;2023-07-20T03:28:39;27.03;;;18.03;;
2618;SDS011;1319;52.346;13.096;2023-07-20T03:31:04;24.23;;;17.30;;
2618;SDS011;1319;52.346;13.096;2023-07-20T03:33:30;24.97;;;17.40;;
2618;SDS011;1319;52.346;13.096;2023-07-20T03:35:55;25.20;;;17.73;;
2618;SDS011;1319;52.346;13.096;2023-07-20T03:38:21;24.63;;;17.30;;
2618;SDS011;1319;52.346;13.096;2023-07-20T03:40:56;25.80;;;16.87;;
2618;SDS011;1319;52.346;13.096;2023-07-20T03:43:22;24.27;;;16.77;;
2618;SDS011;1319;52.346;13.096;2023-07-20T03:45:48;23.47;;;17.40;;
2618;SDS011;1319;52.346;13.096;2023-07-20T03:48:15;25.37;;;16.73;;
2618;SDS011;1319;52.346;13.096;2023-07-20T03:50:40;22.73;;;17.33;;
2618;SDS011;1319;52.346;13.096;2023-07-20T03:53:05;22.77;;;16.33;;
2618;SDS011;1319;52.346;13.096;2023-07-20T03:55:30;23.57;;;16.60;;
2618;SDS011;1319;52.346;13.096;2023-07-20T03:57:56;23.93;;;15.83;;
2618;SDS011;1319;52.346;13.096;2023-07-20T04:00:21;23.50;;;16.63;;
2618;SDS011;1319;52.346;13.096;2023-07-20T04:02:46;21.83;;;16.20;;
2618;SDS011;1319;52.346;13.096;2023-07-20T04:05:11;23.97;;;15.73;;
2618;SDS011;1319;52.346;13.096;2023-07-20T04:07:37;20.20;;;15.23;;
2618;SDS011;1319;52.346;13.096;2023-07-20T04:10:02;25.80;;;16.33;;
2618;SDS011;1319;52.346;13.096;2023-07-20T04:12:27;21.63;;;16.27;;
2618;SDS011;1319;52.346;13.096;2023-07-20T04:14:52;21.67;;;15.87;;
2618;SDS011;1319;52.346;13.096;2023-07-20T04:17:18;17.60;;;15.20;;
2618;SDS011;1319;52.346;13.096;2023-07-20T04:19:43;20.80;;;15.83;;
2618;SDS011;1319;52.346;13.096;2023-07-20T04:22:08;21.37;;;15.53;;
2618;SDS011;1319;52.346;13.096;2023-07-20T04:24:34;21.50;;;15.50;;
2618;SDS011;1319;52.346;13.096;2023-07-20T04:26:59;21.43;;;16.00;;
2618;SDS011;1319;52.346;13.096;2023-07-20T04:29:24;19.97;;;14.30;;
2618;SDS011;1319;52.346;13.096;2023-07-20T04:31:49;17.80;;;14.20;;
2618;SDS011;1319;52.346;13.096;2023-07-20T04:34:14;24.63;;;15.10;;
2618;SDS011;1319;52.346;13.096;2023-07-20T04:36:40;22.70;;;14.97;;
2618;SDS011;1319;52.346;13.096;2023-07-20T04:39:05;18.23;;;14.30;;
2618;SDS011;1319;52.346;13.096;2023-07-20T04:41:31;19.13;;;14.30;;
2618;SDS011;1319;52.346;13.096;2023-07-20T04:43:57;17.10;;;13.83;;
2618;SDS011;1319;52.346;13.096;2023-07-20T04:46:22;15.47;;;13.57;;
2618;SDS011;1319;52.346;13.096;2023-07-20T04:48:47;15.63;;;12.93;;
2618;SDS011;1319;52.346;13.096;2023-07-20T04:51:13;19.67;;;13.17;;
2618;SDS011;1319;52.346;13.096;2023-07-20T04:53:38;19.53;;;13.47;;
2618;SDS011;1319;52.346;13.096;2023-07-20T04:56:03;16.73;;;12.70;;
2618;SDS011;1319;52.346;13.096;2023-07-20T04:58:29;16.47;;;12.27;;
2618;SDS011;1319;52.346;13.096;2023-07-20T05:00:54;17.20;;;12.33;;
2618;SDS011;1319;52.346;13.096;2023-07-20T05:03:19;15.33;;;12.17;;
2618;SDS011;1319;52.346;13.096;2023-07-20T05:05:46;13.33;;;11.40;;
2618;SDS011;1319;52.346;13.096;2023-07-20T05:08:11;13.83;;;11.20;;
2618;SDS011;1319;52.346;13.096;2023-07-20T05:10:36;14.77;;;11.07;;
2618;SDS011;1319;52.346;13.096;2023-07-20T05:13:02;14.27;;;11.13;;
2618;SDS011;1319;52.346;13.096;2023-07-20T05:15:27;12.20;;;10.90;;
2618;SDS011;1319;52.346;13.096;2023-07-20T05:17:52;13.87;;;10.70;;
2618;SDS011;1319;52.346;13.096;2023-07-20T05:20:17;13.50;;;9.87;;
2618;SDS011;1319;52.346;13.096;2023-07-20T05:22:43;11.00;;;9.80;;
2618;SDS011;1319;52.346;13.096;2023-07-20T05:25:09;11.70;;;9.60;;
2618;SDS011;1319;52.346;13.096;2023-07-20T05:27:37;12.67;;;9.83;;
2618;SDS011;1319;52.346;13.096;2023-07-20T05:30:03;10.70;;;9.60;;
2618;SDS011;1319;52.346;13.096;2023-07-20T05:32:29;16.07;;;10.00;;
2618;SDS011;1319;52.346;13.096;2023-07-20T05:34:54;11.53;;;10.23;;
2618;SDS011;1319;52.346;13.096;2023-07-20T05:37:20;12.33;;;10.27;;
2618;SDS011;1319;52.346;13.096;2023-07-20T05:39:45;13.67;;;9.97;;
2618;SDS011;1319;52.346;13.096;2023-07-20T05:42:10;10.00;;;9.00;;
2618;SDS011;1319;52.346;13.096;2023-07-20T05:44:35;14.20;;;9.83;;
2618;SDS011;1319;52.346;13.096;2023-07-20T05:47:01;10.60;;;9.43;;
2618;SDS011;1319;52.346;13.096;2023-07-20T05:49:27;11.80;;;9.80;;
2618;SDS011;1319;52.346;13.096;2023-07-20T05:51:52;12.90;;;9.90;;
2618;SDS011;1319;52.346;13.096;2023-07-20T05:54:18;11.20;;;9.80;;
2618;SDS011;1319;52.346;13.096;2023-07-20T05:56:45;16.17;;;10.47;;
2618;SDS011;1319;52.346;13.096;2023-07-20T05:59:10;11.80;;;9.80;;
2618;SDS011;1319;52.346;13.096;2023-07-20T06:01:35;10.53;;;9.43;;
2618;SDS011;1319;52.346;13.096;2023-07-20T06:04:00;10.00;;;9.00;;
2618;SDS011;1319;52.346;13.096;2023-07-20T06:06:26;11.57;;;8.93;;
2618;SDS011;1319;52.346;13.096;2023-07-20T06:08:51;9.87;;;8.87;;
2618;SDS011;1319;52.346;13.096;2023-07-20T06:11:16;12.43;;;8.60;;
2618;SDS011;1319;52.346;13.096;2023-07-20T06:13:42;9.37;;;8.27;;
2618;SDS011;1319;52.346;13.096;2023-07-20T06:16:08;9.90;;;7.90;;
2618;SDS011;1319;52.346;13.096;2023-07-20T06:18:33;9.50;;;7.57;;
2618;SDS011;1319;52.346;13.096;2023-07-20T06:20:59;7.53;;;6.40;;
2618;SDS011;1319;52.346;13.096;2023-07-20T06:23:24;7.03;;;6.33;;
2618;SDS011;1319;52.346;13.096;2023-07-20T06:25:49;7.70;;;5.07;;
2618;SDS011;1319;52.346;13.096;2023-07-20T06:28:15;5.77;;;5.20;;
2618;SDS011;1319;52.346;13.096;2023-07-20T06:30:40;6.87;;;5.70;;
2618;SDS011;1319;52.346;13.096;2023-07-20T06:33:05;6.90;;;6.30;;
2618;SDS011;1319;52.346;13.096;2023-07-20T06:35:31;7.77;;;6.00;;
2618;SDS011;1319;52.346;13.096;2023-07-20T06:37:57;6.20;;;5.70;;
2618;SDS011;1319;52.346;13.096;2023-07-20T06:40:24;5.83;;;5.23;;
2618;SDS011;1319;52.346;13.096;2023-07-20T06:42:49;7.43;;;6.23;;
2618;SDS011;1319;52.346;13.096;2023-07-20T06:45:14;6.40;;;5.13;;
2618;SDS011;1319;52.346;13.096;2023-07-20T06:47:40;5.83;;;4.60;;
2618;SDS011;1319;52.346;13.096;2023-07-20T06:50:08;4.87;;;4.10;;
2618;SDS011;1319;52.346;13.096;2023-07-20T06:52:33;4.97;;;4.00;;
2618;SDS011;1319;52.346;13.096;2023-07-20T06:54:59;4.17;;;3.63;;
2618;SDS011;1319;52.346;13.096;2023-07-20T06:57:24;10.93;;;4.47;;
2618;SDS011;1319;52.346;13.096;2023-07-20T06:59:50;3.37;;;3.17;;
2618;SDS011;1319;52.346;13.096;2023-07-20T07:02:15;3.30;;;3.10;;
2618;SDS011;1319;52.346;13.096;2023-07-20T07:04:41;2.63;;;2.50;;
2618;SDS011;1319;52.346;13.096;2023-07-20T07:07:06;2.50;;;2.40;;
2618;SDS011;1319;52.346;13.096;2023-07-20T07:09:31;7.47;;;2.50;;
2618;SDS011;1319;52.346;13.096;2023-07-20T07:11:56;2.00;;;1.90;;
2618;SDS011;1319;52.346;13.096;2023-07-20T07:14:22;2.27;;;2.17;;
2618;SDS011;1319;52.346;13.096;2023-07-20T07:16:47;2.57;;;2.13;;
2618;SDS011;1319;52.346;13.096;2023-07-20T07:19:13;2.43;;;2.10;;
2618;SDS011;1319;52.346;13.096;2023-07-20T07:21:38;2.73;;;2.00;;
2618;SDS011;1319;52.346;13.096;2023-07-20T07:24:04;2.00;;;1.90;;
2618;SDS011;1319;52.346;13.096;2023-07-20T07:26:30;1.97;;;1.77;;
2618;SDS011;1319;52.346;13.096;2023-07-20T07:28:55;2.00;;;1.90;;
2618;SDS011;1319;52.346;13.096;2023-07-20T07:31:20;2.40;;;1.50;;
2618;SDS011;1319;52.346;13.096;2023-07-20T07:33:46;1.97;;;1.70;;
2618;SDS011;1319;52.346;13.096;2023-07-20T07:36:11;3.47;;;1.57;;
2618;SDS011;1319;52.346;13.096;2023-07-20T07:38:36;3.97;;;1.73;;
2618;SDS011;1319;52.346;13.096;2023-07-20T07:41:02;1.63;;;1.53;;
2618;SDS011;1319;52.346;13.096;2023-07-20T07:43:27;1.80;;;1.40;;
2618;SDS011;1319;52.346;13.096;2023-07-20T07:45:53;1.60;;;1.50;;
2618;SDS011;1319;52.346;13.096;2023-07-20T07:48:19;1.43;;;1.20;;
2618;SDS011;1319;52.346;13.096;2023-07-20T07:50:45;1.40;;;1.30;;
2618;SDS011;1319;52.346;13.096;2023-07-20T07:53:10;2.60;;;1.40;;
2618;SDS011;1319;52.346;13.096;2023-07-20T07:55:36;2.17;;;1.50;;
2618;SDS011;1319;52.346;13.096;2023-07-20T07:58:01;1.60;;;1.50;;
2618;SDS011;1319;52.346;13.096;2023-07-20T08:00:26;1.30;;;1.30;;
2618;SDS011;1319;52.346;13.096;2023-07-20T08:02:51;1.97;;;1.30;;
2618;SDS011;1319;52.346;13.096;2023-07-20T08:05:17;1.53;;;1.43;;
2618;SDS011;1319;52.346;13.096;2023-07-20T08:07:42;2.90;;;1.27;;
2618;SDS011;1319;52.346;13.096;2023-07-20T08:10:08;1.33;;;1.23;;
2618;SDS011;1319;52.346;13.096;2023-07-20T08:12:33;3.83;;;1.43;;
2618;SDS011;1319;52.346;13.096;2023-07-20T08:14:58;2.20;;;1.50;;
2618;SDS011;1319;52.346;13.096;2023-07-20T08:17:24;1.40;;;1.40;;
2618;SDS011;1319;52.346;13.096;2023-07-20T08:19:49;1.30;;;1.30;;
2618;SDS011;1319;52.346;13.096;2023-07-20T08:22:14;1.97;;;1.40;;
2618;SDS011;1319;52.346;13.096;2023-07-20T08:24:41;1.30;;;1.20;;
2618;SDS011;1319;52.346;13.096;2023-07-20T08:27:06;2.10;;;1.50;;
2618;SDS011;1319;52.346;13.096;2023-07-20T08:29:32;1.50;;;1.40;;
2618;SDS011;1319;52.346;13.096;2023-07-20T08:31:57;1.20;;;1.20;;
2618;SDS011;1319;52.346;13.096;2023-07-20T08:34:22;1.50;;;1.40;;
2618;SDS011;1319;52.346;13.096;2023-07-20T08:36:47;1.40;;;1.27;;
2618;SDS011;1319;52.346;13.096;2023-07-20T08:39:12;1.23;;;1.13;;
2618;SDS011;1319;52.346;13.096;2023-07-20T08:41:38;3.13;;;1.50;;
2618;SDS011;1319;52.346;13.096;2023-07-20T08:44:04;1.13;;;1.10;;
2618;SDS011;1319;52.346;13.096;2023-07-20T08:46:29;1.10;;;1.10;;
2618;SDS011;1319;52.346;13.096;2023-07-20T08:48:55;2.93;;;1.10;;
2618;SDS011;1319;52.346;13.096;2023-07-20T08:51:21;2.00;;;1.10;;
2618;SDS011;1319;52.346;13.096;2023-07-20T08:53:47;1.77;;;1.10;;
2618;SDS011;1319;52.346;13.096;2023-07-20T08:56:12;3.67;;;1.23;;
2618;SDS011;1319;52.346;13.096;2023-07-20T08:58:39;1.77;;;1.30;;
2618;SDS011;1319;52.346;13.096;2023-07-20T09:01:04;2.30;;;1.40;;
2618;SDS011;1319;52.346;13.096;2023-07-20T09:03:29;1.20;;;1.20;;
2618;SDS011;1319;52.346;13.096;2023-07-20T09:05:55;2.27;;;1.40;;
2618;SDS011;1319;52.346;13.096;2023-07-20T09:08:20;1.03;;;1.03;;
2618;SDS011;1319;52.346;13.096;2023-07-20T09:10:45;1.87;;;1.40;;
2618;SDS011;1319;52.346;13.096;2023-07-20T09:13:14;1.42;;;0.98;;
2618;SDS011;1319;52.346;13.096;2023-07-20T09:15:39;1.03;;;0.73;;
2618;SDS011;1319;52.346;13.096;2023-07-20T09:18:10;0.70;;;0.70;;
2618;SDS011;1319;52.346;13.096;2023-07-20T09:20:36;0.90;;;0.90;;
2618;SDS011;1319;52.346;13.096;2023-07-20T09:23:04;0.60;;;0.60;;
2618;SDS011;1319;52.346;13.096;2023-07-20T09:25:29;2.70;;;0.75;;
2618;SDS011;1319;52.346;13.096;2023-07-20T09:27:55;1.17;;;0.85;;
2618;SDS011;1319;52.346;13.096;2023-07-20T09:30:21;1.75;;;0.90;;
2618;SDS011;1319;52.346;13.096;2023-07-20T09:32:49;0.80;;;0.80;;
2618;SDS011;1319;52.346;13.096;2023-07-20T09:35:19;0.90;;;0.90;;
2618;SDS011;1319;52.346;13.096;2023-07-20T09:40:19;0.80;;;0.80;;
2618;SDS011;1319;52.346;13.096;2023-07-20T09:42:45;3.63;;;0.90;;
2618;SDS011;1319;52.346;13.096;2023-07-20T09:45:10;1.10;;;0.80;;
2618;SDS011;1319;52.346;13.096;2023-07-20T09:47:36;0.95;;;0.90;;
2618;SDS011;1319;52.346;13.096;2023-07-20T09:50:02;1.07;;;0.93;;
2618;SDS011;1319;52.346;13.096;2023-07-20T09:52:28;0.70;;;0.70;;
2618;SDS011;1319;52.346;13.096;2023-07-20T09:54:54;1.00;;;1.00;;
2618;SDS011;1319;52.346;13.096;2023-07-20T09:57:20;0.85;;;0.85;;
2618;SDS011;1319;52.346;13.096;2023-07-20T09:59:45;1.70;;;0.95;;
2618;SDS011;1319;52.346;13.096;2023-07-20T10:02:13;1.65;;;0.90;;
2618;SDS011;1319;52.346;13.096;2023-07-20T10:04:41;1.85;;;0.90;;
2618;SDS011;1319;52.346;13.096;2023-07-20T10:07:10;1.85;;;1.05;;
2618;SDS011;1319;52.346;13.096;2023-07-20T10:09:39;1.30;;;1.00;;
2618;SDS011;1319;52.346;13.096;2023-07-20T10:12:04;1.85;;;1.00;;
2618;SDS011;1319;52.346;13.096;2023-07-20T10:14:30;2.08;;;1.17;;
2618;SDS011;1319;52.346;13.096;2023-07-20T10:16:57;1.20;;;1.05;;
2618;SDS011;1319;52.346;13.096;2023-07-20T10:19:42;2.88;;;0.80;;
2618;SDS011;1319;52.346;13.096;2023-07-20T10:22:14;0.90;;;0.90;;
2618;SDS011;1319;52.346;13.096;2023-07-20T10:24:39;1.75;;;1.02;;
2618;SDS011;1319;52.346;13.096;2023-07-20T10:27:06;0.90;;;0.90;;
2618;SDS011;1319;52.346;13.096;2023-07-20T10:29:31;1.95;;;0.95;;
2618;SDS011;1319;52.346;13.096;2023-07-20T10:31:57;2.17;;;0.88;;
2618;SDS011;1319;52.346;13.096;2023-07-20T10:34:23;0.80;;;0.80;;
2618;SDS011;1319;52.346;13.096;2023-07-20T10:36:48;0.82;;;0.80;;
2618;SDS011;1319;52.346;13.096;2023-07-20T10:39:27;1.08;;;0.65;;
2618;SDS011;1319;52.346;13.096;2023-07-20T10:42:03;0.85;;;0.70;;
2618;SDS011;1319;52.346;13.096;2023-07-20T10:44:28;0.80;;;0.80;;
2618;SDS011;1319;52.346;13.096;2023-07-20T10:47:01;1.52;;;0.82;;
2618;SDS011;1319;52.346;13.096;2023-07-20T10:49:26;0.90;;;0.90;;
2618;SDS011;1319;52.346;13.096;2023-07-20T10:51:56;1.23;;;0.80;;
2618;SDS011;1319;52.346;13.096;2023-07-20T10:56:47;0.73;;;0.73;;
2618;SDS011;1319;52.346;13.096;2023-07-20T11:01:56;0.80;;;0.80;;
2618;SDS011;1319;52.346;13.096;2023-07-20T11:04:41;1.63;;;0.80;;
2618;SDS011;1319;52.346;13.096;2023-07-20T11:07:06;0.88;;;0.88;;
2618;SDS011;1319;52.346;13.096;2023-07-20T11:09:35;0.70;;;0.70;;
2618;SDS011;1319;52.346;13.096;2023-07-20T11:12:10;1.67;;;0.80;;
2618;SDS011;1319;52.346;13.096;2023-07-20T11:14:39;1.48;;;0.80;;
2618;SDS011;1319;52.346;13.096;2023-07-20T11:17:12;0.90;;;0.90;;
2618;SDS011;1319;52.346;13.096;2023-07-20T11:19:38;0.80;;;0.80;;
2618;SDS011;1319;52.346;13.096;2023-07-20T11:22:04;0.88;;;0.85;;
2618;SDS011;1319;52.346;13.096;2023-07-20T11:24:29;2.90;;;1.25;;
2618;SDS011;1319;52.346;13.096;2023-07-20T11:26:55;0.90;;;0.90;;
2618;SDS011;1319;52.346;13.096;2023-07-20T11:29:21;1.33;;;1.20;;
2618;SDS011;1319;52.346;13.096;2023-07-20T11:31:47;0.70;;;0.70;;
2618;SDS011;1319;52.346;13.096;2023-07-20T11:34:19;1.10;;;1.00;;
2618;SDS011;1319;52.346;13.096;2023-07-20T11:36:46;0.85;;;0.70;;
2618;SDS011;1319;52.346;13.096;2023-07-20T11:39:12;3.85;;;1.08;;
2618;SDS011;1319;52.346;13.096;2023-07-20T11:41:38;3.58;;;1.05;;
2618;SDS011;1319;52.346;13.096;2023-07-20T11:44:04;1.05;;;0.80;;
2618;SDS011;1319;52.346;13.096;2023-07-20T11:46:29;4.05;;;0.90;;
2618;SDS011;1319;52.346;13.096;2023-07-20T11:48:58;1.95;;;0.90;;
2618;SDS011;1319;52.346;13.096;2023-07-20T11:51:25;0.77;;;0.77;;
2618;SDS011;1319;52.346;13.096;2023-07-20T11:53:50;1.55;;;0.85;;
2618;SDS011;1319;52.346;13.096;2023-07-20T11:56:15;0.77;;;0.77;;
2618;SDS011;1319;52.346;13.096;2023-07-20T11:58:41;0.80;;;0.80;;
2618;SDS011;1319;52.346;13.096;2023-07-20T12:01:07;1.85;;;0.82;;
2618;SDS011;1319;52.346;13.096;2023-07-20T12:03:32;1.65;;;0.80;;
2618;SDS011;1319;52.346;13.096;2023-07-20T12:06:05;1.65;;;0.90;;
2618;SDS011;1319;52.346;13.096;2023-07-20T12:08:31;0.70;;;0.70;;
2618;SDS011;1319;52.346;13.096;2023-07-20T12:10:56;0.70;;;0.63;;
2618;SDS011;1319;52.346;13.096;2023-07-20T12:13:22;1.85;;;0.60;;
2618;SDS011;1319;52.346;13.096;2023-07-20T12:15:48;0.70;;;0.70;;
2618;SDS011;1319;52.346;13.096;2023-07-20T12:18:13;0.93;;;0.70;;
2618;SDS011;1319;52.346;13.096;2023-07-20T12:20:38;0.70;;;0.70;;
2618;SDS011;1319;52.346;13.096;2023-07-20T12:23:11;0.50;;;0.50;;
2618;SDS011;1319;52.346;13.096;2023-07-20T12:25:37;0.57;;;0.57;;
2618;SDS011;1319;52.346;13.096;2023-07-20T12:28:04;0.50;;;0.50;;
2618;SDS011;1319;52.346;13.096;2023-07-20T12:30:30;0.63;;;0.63;;
2618;SDS011;1319;52.346;13.096;2023-07-20T12:32:55;0.80;;;0.60;;
2618;SDS011;1319;52.346;13.096;2023-07-20T12:35:20;1.90;;;0.70;;
2618;SDS011;1319;52.346;13.096;2023-07-20T12:37:46;2.15;;;0.70;;
2618;SDS011;1319;52.346;13.096;2023-07-20T12:40:14;1.88;;;0.70;;
2618;SDS011;1319;52.346;13.096;2023-07-20T12:42:39;0.80;;;0.80;;
2618;SDS011;1319;52.346;13.096;2023-07-20T12:45:05;1.20;;;0.70;;
2618;SDS011;1319;52.346;13.096;2023-07-20T12:47:30;0.73;;;0.68;;
2618;SDS011;1319;52.346;13.096;2023-07-20T12:49:55;2.15;;;0.77;;
2618;SDS011;1319;52.346;13.096;2023-07-20T12:52:21;0.95;;;0.70;;
2618;SDS011;1319;52.346;13.096;2023-07-20T12:54:46;2.70;;;0.70;;
2618;SDS011;1319;52.346;13.096;2023-07-20T12:57:11;1.13;;;0.68;;
2618;SDS011;1319;52.346;13.096;2023-07-20T12:59:36;0.80;;;0.63;;
2618;SDS011;1319;52.346;13.096;2023-07-20T13:02:01;0.80;;;0.80;;
2618;SDS011;1319;52.346;13.096;2023-07-20T13:04:27;1.08;;;0.70;;
2618;SDS011;1319;52.346;13.096;2023-07-20T13:06:52;1.05;;;0.70;;
2618;SDS011;1319;52.346;13.096;2023-07-20T13:09:17;0.65;;;0.65;;
2618;SDS011;1319;52.346;13.096;2023-07-20T13:11:42;2.00;;;0.60;;
2618;SDS011;1319;52.346;13.096;2023-07-20T13:14:09;1.30;;;0.60;;
2618;SDS011;1319;52.346;13.096;2023-07-20T13:16:34;0.60;;;0.60;;
2618;SDS011;1319;52.346;13.096;2023-07-20T13:19:00;0.50;;;0.50;;
2618;SDS011;1319;52.346;13.096;2023-07-20T13:21:25;0.50;;;0.50;;
2618;SDS011;1319;52.346;13.096;2023-07-20T13:23:51;1.52;;;0.60;;
2618;SDS011;1319;52.346;13.096;2023-07-20T13:26:16;0.85;;;0.68;;
2618;SDS011;1319;52.346;13.096;2023-07-20T13:28:41;2.45;;;0.60;;
2618;SDS011;1319;52.346;13.096;2023-07-20T13:31:06;0.60;;;0.60;;
2618;SDS011;1319;52.346;13.096;2023-07-20T13:33:33;1.35;;;0.50;;
2618;SDS011;1319;52.346;13.096;2023-07-20T13:35:59;2.08;;;0.50;;
2618;SDS011;1319;52.346;13.096;2023-07-20T13:38:24;0.60;;;0.52;;
2618;SDS011;1319;52.346;13.096;2023-07-20T13:40:49;0.60;;;0.60;;
2618;SDS011;1319;52.346;13.096;2023-07-20T13:43:14;3.88;;;0.60;;
2618;SDS011;1319;52.346;13.096;2023-07-20T13:45:40;0.50;;;0.50;;
2618;SDS011;1319;52.346;13.096;2023-07-20T13:48:05;0.70;;;0.70;;
2618;SDS011;1319;52.346;13.096;2023-07-20T13:50:30;1.42;;;0.60;;
2618;SDS011;1319;52.346;13.096;2023-07-20T13:52:55;2.13;;;0.50;;
2618;SDS011;1319;52.346;13.096;2023-07-20T13:55:20;0.50;;;0.50;;
2618;SDS011;1319;52.346;13.096;2023-07-20T13:57:46;0.85;;;0.50;;
2618;SDS011;1319;52.346;13.096;2023-07-20T14:00:12;0.90;;;0.60;;
2618;SDS011;1319;52.346;13.096;2023-07-20T14:02:38;2.20;;;0.57;;
2618;SDS011;1319;52.346;13.096;2023-07-20T14:05:04;0.50;;;0.50;;
2618;SDS011;1319;52.346;13.096;2023-07-20T14:07:29;1.27;;;0.70;;
2618;SDS011;1319;52.346;13.096;2023-07-20T14:09:54;2.50;;;0.70;;
2618;SDS011;1319;52.346;13.096;2023-07-20T14:12:20;0.60;;;0.60;;
2618;SDS011;1319;52.346;13.096;2023-07-20T14:14:45;0.77;;;0.60;;
2618;SDS011;1319;52.346;13.096;2023-07-20T14:17:10;1.33;;;0.60;;
2618;SDS011;1319;52.346;13.096;2023-07-20T14:19:37;0.60;;;0.60;;
2618;SDS011;1319;52.346;13.096;2023-07-20T14:22:02;0.70;;;0.60;;
2618;SDS011;1319;52.346;13.096;2023-07-20T14:24:28;0.98;;;0.77;;
2618;SDS011;1319;52.346;13.096;2023-07-20T14:26:54;0.50;;;0.50;;
2618;SDS011;1319;52.346;13.096;2023-07-20T14:29:19;0.63;;;0.63;;
2618;SDS011;1319;52.346;13.096;2023-07-20T14:31:45;2.55;;;0.60;;
2618;SDS011;1319;52.346;13.096;2023-07-20T14:34:12;2.20;;;0.63;;
2618;SDS011;1319;52.346;13.096;2023-07-20T14:36:39;0.85;;;0.60;;
2618;SDS011;1319;52.346;13.096;2023-07-20T14:39:05;1.67;;;0.65;;
2618;SDS011;1319;52.346;13.096;2023-07-20T14:41:30;0.90;;;0.70;;
2618;SDS011;1319;52.346;13.096;2023-07-20T14:43:55;0.95;;;0.60;;
2618;SDS011;1319;52.346;13.096;2023-07-20T14:46:20;1.00;;;0.55;;
2618;SDS011;1319;52.346;13.096;2023-07-20T14:48:46;1.45;;;0.73;;
2618;SDS011;1319;52.346;13.096;2023-07-20T14:51:12;0.73;;;0.70;;
2618;SDS011;1319;52.346;13.096;2023-07-20T14:53:37;0.63;;;0.63;;
2618;SDS011;1319;52.346;13.096;2023-07-20T14:56:03;0.70;;;0.70;;
2618;SDS011;1319;52.346;13.096;2023-07-20T14:58:29;2.45;;;0.52;;
2618;SDS011;1319;52.346;13.096;2023-07-20T15:00:54;0.77;;;0.65;;